Aviation Digital Data Service (ADDS)

Output produced by METARs form (1721 UTC 24 June 2019)
found at http://www.aviationweather.gov/metar/data/
 
Forecast for: VTCL (LAMPANG , TH)
Text: TAF VTCL 241100Z 2412/2512 18005KT 9999 FEW025
Forecast period: 1200 UTC 24 June 2019 to 1200 UTC 25 June 2019
Forecast type: FROM: standard forecast or significant change
Winds: from the S (180 degrees) at 6 MPH (5 knots; 2.6 m/s)
Visibility: 6 or more miles 10+ km)
Ceiling: at least 12,000 feet AGL
Clouds: few clouds at 2500 feet AGL
Weather: no significant weather forecast for this period